Terminal Aerodrome Forecast
Issued by NWS

Home | Current Version | Previous Version | Text Only | Print | Product List | Glossary On
Versions: 1 2 3 4 5 6 7 8 9 10 11 12 13 14 15
366
FTUS45 KTFX 161120
TAFHVR
TAF
KHVR 161120Z 1612/1712 VRB04KT P6SM FEW110 FEW250
     FM162000 25009G16KT P6SM FEW130 FEW250
     FM170100 29009KT P6SM FEW140 FEW200=

USA.gov is the U.S. government's official web portal to all federal, state and local government web resources and services.